CheckWX is a tool to help pilots better visualize weather data.  It is not intended as a substitute for an official pre-flight weather briefing.

19:16:01 UTC

KTWF TAF
Joslin Field - Magic Valley Regional Airport
Twin Falls, Idaho, USA
KTWF 052325Z 0600/0624 16014KT P6SM VCTS BKN050CB FM060300 12007KT P6SM -RA BKN025 OVC040 FM060800 19010KT P6SM BKN040 OVC070 FM062000 29007KT P6SM VCTS OVC050CB

Apr-6@
00:00 UTC

Apr-6 @ 00:00 UTC

Apr-6@
03:00 UTC

Apr-6 @ 03:00 UTC

TAF KTWF 052325Z 0600/0624 16014KT P6SM VCTS BKN050CB

Expired

Wind
  • 160° at 14 KTS
Conditions
Area Thunderstorm
Cloud Levels
  • Broken at 5,000' AGL

Apr-6@
03:00 UTC

Apr-6 @ 03:00 UTC

Apr-6@
08:00 UTC

Apr-6 @ 08:00 UTC

FM060300 12007KT P6SM -RA BKN025 OVC040

Expired

Wind
  • 120° at 7 KTS
Conditions
Light Rain
Cloud Levels
  • Broken at 2,500' AGL
  • Overcast at 4,000' AGL

Apr-6@
08:00 UTC

Apr-6 @ 08:00 UTC

Apr-6@
20:00 UTC

Apr-6 @ 20:00 UTC

FM060800 19010KT P6SM BKN040 OVC070

From

From Standard forecast or significant change

Wind
  • 190° at 10 KTS
Cloud Levels
  • Broken at 4,000' AGL
  • Overcast at 7,000' AGL

Apr-6@
20:00 UTC

Apr-6 @ 20:00 UTC

Apr-7@
00:00 UTC

Apr-7 @ 00:00 UTC

FM062000 29007KT P6SM VCTS OVC050CB

From

From Standard forecast or significant change

Wind
  • 290° at 7 KTS
Conditions
Area Thunderstorm
Cloud Levels
  • Overcast at 5,000' AGL